Time;durP1;ratioP1;P1;durP2;ratioP2;P2;SDS_P1;SDS_P2;PMS_P1;PMS_P2;Temp;Humidity;BMP_temperature;BMP_pressure;BME280_temperature;BME280_humidity;BME280_pressure;Samples;Min_cycle;Max_cycle;Signal;HPM_P1;HPM_P2
2020/12/08 00:00:19;;;;;;;2.58;1.80;;;6.70;56.20;;;;;;5057381;28;20071;-82
2020/12/08 00:02:44;;;;;;;5.10;1.83;;;6.70;56.10;;;;;;5057347;28;20059;-83
2020/12/08 00:05:11;;;;;;;9.60;5.07;;;6.60;56.10;;;;;;5057710;28;20478;-84
2020/12/08 00:07:37;;;;;;;9.73;6.15;;;6.70;56.10;;;;;;5056173;28;20107;-85
2020/12/08 00:10:03;;;;;;;6.25;3.50;;;6.70;56.10;;;;;;5057275;28;20140;-80
2020/12/08 00:12:29;;;;;;;4.57;2.13;;;6.70;56.10;;;;;;5057238;28;20104;-80
2020/12/08 00:14:55;;;;;;;3.15;2.20;;;6.60;56.10;;;;;;5057307;28;20052;-83
2020/12/08 00:17:22;;;;;;;4.82;2.85;;;6.70;56.00;;;;;;5055892;28;20028;-81
2020/12/08 00:19:47;;;;;;;5.28;2.38;;;6.60;56.00;;;;;;5055668;28;20029;-83
2020/12/08 00:22:14;;;;;;;6.38;2.20;;;6.60;55.90;;;;;;5055701;28;20115;-81
2020/12/08 00:24:40;;;;;;;3.05;1.95;;;6.60;55.90;;;;;;5056900;28;20059;-83
2020/12/08 00:27:10;;;;;;;3.47;1.85;;;6.60;55.80;;;;;;5056778;28;20029;-81
2020/12/08 00:29:39;;;;;;;3.80;2.00;;;6.60;55.80;;;;;;5056773;28;20024;-83
2020/12/08 00:32:07;;;;;;;2.55;1.60;;;6.60;55.80;;;;;;5055713;28;20386;-82
2020/12/08 00:34:33;;;;;;;2.67;1.60;;;6.50;55.70;;;;;;5056503;28;20031;-80
2020/12/08 00:36:58;;;;;;;3.20;1.50;;;6.60;55.70;;;;;;5054860;28;20115;-81
2020/12/08 00:39:24;;;;;;;3.83;1.90;;;6.50;55.80;;;;;;5056787;28;20024;-83
2020/12/08 00:41:50;;;;;;;3.88;1.88;;;6.50;55.70;;;;;;5055486;28;20063;-83
2020/12/08 00:44:16;;;;;;;4.95;2.08;;;6.50;55.80;;;;;;5056508;28;20486;-84
2020/12/08 00:46:47;;;;;;;3.38;1.85;;;6.50;55.80;;;;;;5056693;28;20473;-83
2020/12/08 00:49:13;;;;;;;2.70;1.70;;;6.40;55.70;;;;;;5058270;28;20079;-84
2020/12/08 00:51:39;;;;;;;4.03;1.75;;;6.40;55.70;;;;;;5056793;28;20021;-82
2020/12/08 00:54:05;;;;;;;2.60;1.73;;;6.40;55.70;;;;;;5055453;28;20032;-82
2020/12/08 00:56:31;;;;;;;2.83;1.52;;;6.30;55.70;;;;;;5057245;28;20075;-81
2020/12/08 00:58:58;;;;;;;2.35;1.33;;;6.30;55.70;;;;;;5055333;28;20144;-79
2020/12/08 01:01:25;;;;;;;2.67;1.65;;;6.30;55.80;;;;;;5056641;28;20021;-84
2020/12/08 01:03:51;;;;;;;2.72;1.40;;;6.30;55.70;;;;;;5056555;28;20029;-82
2020/12/08 01:06:16;;;;;;;1.52;1.15;;;6.20;55.70;;;;;;5056429;28;20048;-81
2020/12/08 01:08:42;;;;;;;3.35;1.63;;;6.20;55.70;;;;;;5056869;28;20067;-81
2020/12/08 01:11:08;;;;;;;2.08;1.20;;;6.20;55.70;;;;;;5055257;28;20053;-82
2020/12/08 01:13:37;;;;;;;2.22;1.20;;;6.20;55.80;;;;;;5054508;28;20021;-82
2020/12/08 01:16:04;;;;;;;2.20;1.25;;;6.10;55.70;;;;;;5055185;28;20100;-80
2020/12/08 01:18:31;;;;;;;4.43;1.48;;;6.10;55.70;;;;;;5056785;28;20389;-83
2020/12/08 01:20:56;;;;;;;3.50;1.85;;;6.10;55.80;;;;;;5055254;28;20032;-81
2020/12/08 01:23:26;;;;;;;3.40;1.85;;;6.10;55.80;;;;;;5056313;28;20041;-84
2020/12/08 01:25:51;;;;;;;3.15;1.65;;;6.00;55.80;;;;;;5055846;28;20529;-82
2020/12/08 01:28:17;;;;;;;6.07;2.15;;;6.00;55.80;;;;;;5056701;28;20060;-84
2020/12/08 01:30:45;;;;;;;3.30;1.58;;;6.00;55.80;;;;;;5056228;28;20025;-81
2020/12/08 01:33:10;;;;;;;2.17;1.17;;;6.00;55.80;;;;;;5055638;28;20021;-82
2020/12/08 01:35:36;;;;;;;2.25;1.40;;;6.00;55.80;;;;;;5056304;28;20021;-81
2020/12/08 01:38:03;;;;;;;4.13;1.80;;;6.00;55.80;;;;;;5057057;28;20052;-81
2020/12/08 01:40:29;;;;;;;2.90;1.50;;;5.90;55.90;;;;;;5056466;28;20094;-82
2020/12/08 01:42:54;;;;;;;2.47;1.50;;;5.90;56.00;;;;;;5054831;28;20467;-82
2020/12/08 01:45:20;;;;;;;3.47;1.80;;;5.90;55.90;;;;;;5054771;28;20013;-80
2020/12/08 01:47:46;;;;;;;2.60;1.65;;;6.00;56.00;;;;;;5055021;28;20025;-82
2020/12/08 01:50:12;;;;;;;5.55;1.70;;;5.90;56.00;;;;;;5055553;28;20505;-79
2020/12/08 01:52:38;;;;;;;3.20;1.58;;;5.90;56.00;;;;;;5055630;28;20025;-85
2020/12/08 01:55:04;;;;;;;5.82;1.73;;;5.90;56.00;;;;;;5056028;28;20036;-83
2020/12/08 01:57:30;;;;;;;3.00;1.60;;;5.90;56.00;;;;;;5054487;28;20032;-84
2020/12/08 01:59:56;;;;;;;2.78;1.60;;;5.80;56.00;;;;;;5055624;28;20497;-83
2020/12/08 02:02:24;;;;;;;2.53;1.63;;;5.80;56.00;;;;;;5054527;28;20028;-83
2020/12/08 02:04:50;;;;;;;3.47;1.60;;;5.80;56.00;;;;;;5054578;28;20075;-83
2020/12/08 02:07:16;;;;;;;3.33;1.65;;;5.80;56.00;;;;;;5054389;28;20024;-83
2020/12/08 02:09:41;;;;;;;2.53;1.27;;;5.80;56.00;;;;;;5055725;28;20052;-83
2020/12/08 02:12:07;;;;;;;6.78;2.20;;;5.80;56.10;;;;;;5056156;28;20470;-80
2020/12/08 02:14:33;;;;;;;3.67;2.00;;;5.80;56.10;;;;;;5054557;28;20482;-83
2020/12/08 02:16:59;;;;;;;2.47;1.40;;;5.80;56.10;;;;;;5054306;28;20017;-82
2020/12/08 02:19:25;;;;;;;1.50;1.20;;;5.90;56.10;;;;;;5054280;28;20493;-85
2020/12/08 02:21:51;;;;;;;2.20;1.42;;;5.90;56.10;;;;;;5053972;28;20036;-83
2020/12/08 02:24:17;;;;;;;4.30;1.90;;;5.90;56.20;;;;;;5054837;28;20045;-82
2020/12/08 02:26:46;;;;;;;2.55;1.70;;;6.00;56.20;;;;;;5053001;28;20028;-78
2020/12/08 02:29:11;;;;;;;3.33;1.60;;;5.90;56.10;;;;;;5054214;28;20033;-81
2020/12/08 02:31:37;;;;;;;4.75;1.90;;;6.00;56.10;;;;;;5054837;28;20089;-82
2020/12/08 02:34:03;;;;;;;41.90;14.85;;;6.00;56.10;;;;;;5054754;28;20021;-81
2020/12/08 02:36:29;;;;;;;11.23;5.10;;;6.00;56.00;;;;;;5053814;28;20048;-86
2020/12/08 02:38:55;;;;;;;4.10;2.40;;;6.00;56.00;;;;;;5053791;28;20061;-82
2020/12/08 02:41:27;;;;;;;8.27;2.75;;;5.90;56.00;;;;;;5054136;28;20074;-87
2020/12/08 02:43:53;;;;;;;4.93;2.58;;;5.90;56.00;;;;;;5053700;28;20040;-82
2020/12/08 02:46:20;;;;;;;4.20;2.03;;;5.90;56.00;;;;;;5053486;28;20029;-82
2020/12/08 02:48:47;;;;;;;4.30;2.33;;;5.90;56.10;;;;;;5053564;28;20025;-82
2020/12/08 02:51:20;;;;;;;4.18;2.33;;;5.90;56.10;;;;;;5055385;28;20104;-82
2020/12/08 02:53:46;;;;;;;3.85;2.10;;;5.80;56.00;;;;;;5054798;28;20024;-81
2020/12/08 02:56:12;;;;;;;4.72;2.40;;;5.80;56.10;;;;;;5054679;28;20413;-80
2020/12/08 02:58:38;;;;;;;3.72;2.53;;;5.80;56.20;;;;;;5054922;28;20025;-84
2020/12/08 03:01:04;;;;;;;4.90;2.33;;;5.80;56.20;;;;;;5053922;28;20016;-84
2020/12/08 03:03:30;;;;;;;4.35;2.30;;;5.80;56.90;;;;;;5065572;28;20389;-82
2020/12/08 03:05:56;;;;;;;4.57;2.25;;;5.80;56.20;;;;;;5054087;28;20028;-79
2020/12/08 03:08:21;;;;;;;6.18;2.38;;;5.80;56.20;;;;;;5053841;28;20104;-85
2020/12/08 03:10:47;;;;;;;4.13;2.25;;;5.70;56.10;;;;;;5055037;28;20021;-81
2020/12/08 03:13:13;;;;;;;4.78;2.15;;;5.70;56.10;;;;;;5056799;28;20027;-84
2020/12/08 03:15:39;;;;;;;6.05;2.13;;;5.70;56.10;;;;;;5072833;28;20024;-82
2020/12/08 03:18:05;;;;;;;4.38;2.20;;;5.60;56.20;;;;;;5056628;28;20040;-79
2020/12/08 03:20:30;;;;;;;3.80;1.95;;;5.60;56.30;;;;;;5054121;28;20033;-82
2020/12/08 03:22:56;;;;;;;4.55;1.98;;;5.60;56.40;;;;;;5053086;28;20048;-81
2020/12/08 03:25:22;;;;;;;4.55;2.38;;;5.50;56.40;;;;;;5054558;28;20025;-86
2020/12/08 03:27:48;;;;;;;2.95;1.98;;;5.50;56.40;;;;;;5062228;28;20020;-81
2020/12/08 03:30:14;;;;;;;5.28;2.17;;;5.50;56.50;;;;;;5079360;28;20401;-83
2020/12/08 03:32:39;;;;;;;4.32;2.38;;;5.50;56.50;;;;;;5079439;28;20021;-83
2020/12/08 03:35:05;;;;;;;3.67;2.10;;;5.50;56.60;;;;;;5080632;28;20475;-80
2020/12/08 03:37:31;;;;;;;3.63;2.00;;;5.40;56.60;;;;;;5081709;28;20485;-79
2020/12/08 03:39:57;;;;;;;3.70;2.08;;;5.40;56.70;;;;;;5078378;28;20024;-81
2020/12/08 03:42:23;;;;;;;6.88;2.90;;;5.40;56.80;;;;;;5076038;28;20504;-84
2020/12/08 03:44:48;;;;;;;7.68;2.78;;;5.40;56.80;;;;;;5062640;28;20037;-82
2020/12/08 03:47:14;;;;;;;4.30;2.40;;;5.40;56.80;;;;;;5056812;28;20036;-80
2020/12/08 03:49:40;;;;;;;4.57;2.08;;;5.40;56.80;;;;;;5057823;28;20037;-79
2020/12/08 03:52:06;;;;;;;3.13;2.28;;;5.40;56.80;;;;;;5056694;28;20049;-81
2020/12/08 03:54:32;;;;;;;6.18;2.88;;;5.30;56.70;;;;;;5057971;28;20025;-81
2020/12/08 03:56:57;;;;;;;3.72;2.20;;;5.40;56.90;;;;;;5057475;28;20025;-83
2020/12/08 03:59:23;;;;;;;4.22;2.38;;;5.30;56.90;;;;;;5056745;28;20124;-78
2020/12/08 04:01:49;;;;;;;4.88;2.45;;;5.30;56.90;;;;;;5059708;28;20717;-82
2020/12/08 04:04:16;;;;;;;4.15;2.45;;;5.30;56.90;;;;;;5077568;28;20035;-84
2020/12/08 04:06:42;;;;;;;4.20;2.33;;;5.30;56.90;;;;;;5077546;28;20028;-81
2020/12/08 04:09:07;;;;;;;4.35;2.00;;;5.20;56.90;;;;;;5076240;28;20020;-84
2020/12/08 04:11:34;;;;;;;5.40;2.60;;;5.20;56.90;;;;;;5077377;28;20027;-83
2020/12/08 04:14:00;;;;;;;8.32;2.92;;;5.20;56.90;;;;;;5077552;28;20025;-78
2020/12/08 04:16:30;;;;;;;5.07;1.98;;;5.10;56.90;;;;;;5077966;28;20025;-79
2020/12/08 04:18:56;;;;;;;3.85;1.80;;;5.20;57.00;;;;;;5064794;28;20081;-82
2020/12/08 04:21:27;;;;;;;2.67;1.40;;;5.10;56.90;;;;;;5051020;28;20025;-79
2020/12/08 04:24:00;;;;;;;5.97;2.35;;;5.10;56.90;;;;;;5056802;28;20041;-83
2020/12/08 04:26:27;;;;;;;4.20;2.03;;;5.10;57.00;;;;;;5059998;28;20162;-83
2020/12/08 04:28:53;;;;;;;3.53;1.60;;;5.10;57.00;;;;;;5060411;28;20025;-81
2020/12/08 04:31:19;;;;;;;2.70;1.40;;;5.10;57.00;;;;;;5059609;28;20021;-82
2020/12/08 04:33:46;;;;;;;4.00;1.40;;;5.10;57.00;;;;;;5058743;28;20017;-80
2020/12/08 04:36:16;;;;;;;3.47;2.00;;;5.10;57.00;;;;;;5057887;28;20024;-84
2020/12/08 04:38:42;;;;;;;2.22;1.30;;;5.10;57.00;;;;;;5058860;28;20035;-83
2020/12/08 04:41:13;;;;;;;2.17;1.17;;;5.00;57.00;;;;;;5056950;28;20028;-80
2020/12/08 04:43:40;;;;;;;2.53;1.60;;;5.00;57.00;;;;;;5056805;28;20487;-81
2020/12/08 04:46:08;;;;;;;3.08;1.80;;;5.00;57.10;;;;;;5055865;28;20103;-80
2020/12/08 04:48:37;;;;;;;3.45;1.75;;;5.00;57.20;;;;;;5058258;28;20086;-81
2020/12/08 04:51:05;;;;;;;2.28;1.40;;;5.00;57.20;;;;;;5055723;28;20021;-80
2020/12/08 04:53:31;;;;;;;3.75;1.58;;;5.00;57.20;;;;;;5055334;28;20090;-80
2020/12/08 04:55:57;;;;;;;11.40;6.75;;;5.00;57.10;;;;;;5056840;28;20044;-84
2020/12/08 04:58:24;;;;;;;17.35;10.15;;;4.90;57.10;;;;;;5056528;28;20055;-80
2020/12/08 05:00:50;;;;;;;14.00;8.15;;;4.90;57.20;;;;;;5055700;28;20485;-79
2020/12/08 05:03:25;;;;;;;14.50;7.75;;;4.90;57.20;;;;;;5054506;28;20021;-80
2020/12/08 05:05:52;;;;;;;9.23;5.68;;;4.90;57.20;;;;;;5055675;28;20021;-83
2020/12/08 05:08:18;;;;;;;7.00;4.05;;;4.90;57.20;;;;;;5056303;28;20535;-81
2020/12/08 05:10:46;;;;;;;7.40;3.45;;;4.90;57.30;;;;;;5055255;28;20021;-84
2020/12/08 05:13:30;;;;;;;3.22;2.35;;;4.90;57.40;;;;;;5056166;28;20026;-83
2020/12/08 05:16:00;;;;;;;4.95;2.67;;;4.80;57.30;;;;;;5056648;28;20021;-82
2020/12/08 05:18:26;;;;;;;4.90;2.47;;;4.80;57.40;;;;;;5056182;28;20116;-84
2020/12/08 05:20:51;;;;;;;2.67;1.95;;;4.80;57.40;;;;;;5056304;28;20032;-83
2020/12/08 05:23:17;;;;;;;3.25;2.10;;;4.80;57.30;;;;;;5055620;28;20045;-80
2020/12/08 05:25:46;;;;;;;4.15;1.60;;;4.80;57.50;;;;;;5054594;28;20029;-80
2020/12/08 05:28:19;;;;;;;3.45;1.60;;;4.70;57.70;;;;;;5055724;28;20028;-81
2020/12/08 05:30:46;;;;;;;4.88;2.20;;;4.70;57.50;;;;;;5054826;28;20024;-82
2020/12/08 05:33:17;;;;;;;3.80;2.03;;;4.70;57.50;;;;;;5055052;28;20025;-82
2020/12/08 05:35:46;;;;;;;3.40;1.73;;;4.70;57.60;;;;;;5055893;28;20025;-84
2020/12/08 05:38:15;;;;;;;3.08;1.55;;;4.70;57.60;;;;;;5054554;28;20560;-84
2020/12/08 05:40:44;;;;;;;3.63;2.10;;;4.70;57.60;;;;;;5055775;28;20150;-82
2020/12/08 05:43:11;;;;;;;3.55;1.80;;;4.60;57.60;;;;;;5056708;28;20021;-80
2020/12/08 05:45:37;;;;;;;3.35;1.63;;;4.60;57.60;;;;;;5058336;28;20479;-83
2020/12/08 05:48:03;;;;;;;4.60;2.25;;;4.60;58.40;;;;;;5057962;28;20056;-81
2020/12/08 05:50:29;;;;;;;3.00;1.73;;;4.60;57.90;;;;;;5060308;28;20021;-80
2020/12/08 05:53:00;;;;;;;3.45;1.67;;;4.60;57.90;;;;;;5056468;28;20028;-79
2020/12/08 05:55:29;;;;;;;4.07;1.77;;;4.60;57.80;;;;;;5056188;28;20466;-80
2020/12/08 05:58:06;;;;;;;3.97;1.88;;;4.60;58.00;;;;;;5055209;28;20036;-82
2020/12/08 06:00:34;;;;;;;4.05;1.80;;;4.50;57.90;;;;;;5055632;28;20021;-83
2020/12/08 06:03:11;;;;;;;3.78;1.77;;;4.60;58.00;;;;;;5054512;28;20025;-83
2020/12/08 06:05:38;;;;;;;4.28;1.77;;;4.60;58.20;;;;;;5054466;28;20089;-84
2020/12/08 06:08:17;;;;;;;3.03;1.33;;;4.50;58.20;;;;;;5055531;28;20386;-85
2020/12/08 06:10:54;;;;;;;8.30;2.10;;;4.60;58.20;;;;;;5055875;28;20032;-85
2020/12/08 06:13:27;;;;;;;8.25;2.05;;;4.60;58.20;;;;;;5055070;28;20021;-82
2020/12/08 06:15:53;;;;;;;4.40;1.63;;;4.60;58.30;;;;;;5054585;28;20029;-83
2020/12/08 06:18:33;;;;;;;2.25;1.60;;;4.60;58.30;;;;;;5055539;28;20029;-82
2020/12/08 06:21:01;;;;;;;3.50;1.45;;;4.70;58.40;;;;;;5055211;28;20029;-79
2020/12/08 06:23:27;;;;;;;3.53;1.70;;;4.70;58.20;;;;;;5055295;28;20041;-82
2020/12/08 06:26:01;;;;;;;3.65;1.77;;;4.80;58.20;;;;;;5055207;28;20031;-83
2020/12/08 06:28:26;;;;;;;3.70;2.00;;;4.80;58.20;;;;;;5055154;28;20382;-80
2020/12/08 06:31:03;;;;;;;3.42;2.08;;;4.80;58.20;;;;;;5055350;28;20021;-85
2020/12/08 06:33:30;;;;;;;4.35;1.90;;;4.80;58.30;;;;;;5055738;28;20017;-83
2020/12/08 06:36:00;;;;;;;5.78;2.20;;;4.90;58.30;;;;;;5055274;28;20099;-80
2020/12/08 06:38:27;;;;;;;3.60;1.75;;;4.90;58.30;;;;;;5054171;28;20032;-83
2020/12/08 06:40:54;;;;;;;8.60;2.10;;;5.00;58.30;;;;;;5053788;28;20025;-83
2020/12/08 06:43:21;;;;;;;5.20;2.65;;;5.00;58.30;;;;;;5055125;28;20497;-81
2020/12/08 06:45:47;;;;;;;5.25;2.90;;;5.00;58.20;;;;;;5054804;28;20031;-83
2020/12/08 06:48:21;;;;;;;38.15;20.30;;;5.10;58.10;;;;;;5054896;28;20049;-80
2020/12/08 06:50:50;;;;;;;33.85;16.05;;;5.10;58.00;;;;;;5053748;28;20025;-85
2020/12/08 06:53:16;;;;;;;20.02;10.02;;;5.10;57.90;;;;;;5055067;28;20040;-83
2020/12/08 06:55:47;;;;;;;10.75;5.78;;;5.20;57.90;;;;;;5053488;28;20417;-80
2020/12/08 06:58:20;;;;;;;4.28;2.90;;;5.10;57.90;;;;;;5052878;28;20025;-78
2020/12/08 07:00:46;;;;;;;6.35;3.03;;;5.20;57.90;;;;;;5053636;28;20025;-83
2020/12/08 07:03:13;;;;;;;4.45;2.45;;;5.20;57.90;;;;;;5055856;28;20054;-80
2020/12/08 07:05:40;;;;;;;9.45;3.08;;;5.20;57.90;;;;;;5057822;28;20028;-80
2020/12/08 07:08:08;;;;;;;3.55;2.35;;;5.20;57.90;;;;;;5057598;28;20025;-81
2020/12/08 07:10:38;;;;;;;4.85;2.70;;;5.20;57.90;;;;;;5057563;28;20031;-81
2020/12/08 07:13:16;;;;;;;14.05;3.53;;;5.20;57.90;;;;;;5058528;28;20355;-81
2020/12/08 07:15:43;;;;;;;5.95;2.42;;;5.30;57.80;;;;;;5058459;28;20052;-78
2020/12/08 07:18:11;;;;;;;4.90;2.25;;;5.30;57.80;;;;;;5058618;28;20029;-83
2020/12/08 07:20:43;;;;;;;3.97;2.00;;;5.30;57.80;;;;;;5057703;28;20028;-82
2020/12/08 07:23:11;;;;;;;4.18;2.30;;;5.40;57.90;;;;;;5057443;28;20155;-84
2020/12/08 07:25:38;;;;;;;8.82;2.72;;;5.40;57.90;;;;;;5057721;28;20083;-81
2020/12/08 07:28:04;;;;;;;4.10;2.42;;;5.50;58.00;;;;;;5057253;28;20378;-83
2020/12/08 07:30:31;;;;;;;3.97;2.35;;;5.60;58.00;;;;;;5058735;28;20445;-81
2020/12/08 07:33:09;;;;;;;6.05;2.03;;;5.70;58.00;;;;;;5058661;28;20021;-84
2020/12/08 07:35:36;;;;;;;7.30;2.47;;;5.70;57.90;;;;;;5059274;28;20051;-80
2020/12/08 07:38:03;;;;;;;2.95;1.63;;;5.80;57.90;;;;;;5058330;28;20021;-83
2020/12/08 07:40:37;;;;;;;3.47;1.92;;;5.90;57.80;;;;;;5058529;28;20025;-79
2020/12/08 07:43:04;;;;;;;3.10;2.08;;;6.00;57.80;;;;;;5057123;28;20051;-83
2020/12/08 07:45:41;;;;;;;4.80;2.00;;;6.10;57.70;;;;;;5057567;28;20075;-85
2020/12/08 07:48:09;;;;;;;3.78;1.95;;;6.20;57.70;;;;;;5057242;28;20029;-82
2020/12/08 07:50:35;;;;;;;3.90;1.67;;;6.30;57.60;;;;;;5056996;28;20382;-83
2020/12/08 07:53:09;;;;;;;4.00;1.65;;;6.40;57.50;;;;;;5057581;28;20025;-78
2020/12/08 07:55:42;;;;;;;4.93;2.20;;;6.50;57.40;;;;;;5056147;28;20106;-82
2020/12/08 07:58:09;;;;;;;5.75;2.70;;;6.70;57.30;;;;;;5057112;28;20479;-79
2020/12/08 08:00:35;;;;;;;4.68;2.80;;;6.70;57.00;;;;;;5058471;28;20047;-83
2020/12/08 08:03:01;;;;;;;6.55;2.40;;;6.80;56.70;;;;;;5057799;28;20056;-82
2020/12/08 08:05:27;;;;;;;7.72;2.33;;;6.90;56.70;;;;;;5056743;28;20025;-83
2020/12/08 08:07:53;;;;;;;8.07;2.40;;;7.00;56.60;;;;;;5056656;28;20021;-85
2020/12/08 08:10:19;;;;;;;9.18;3.50;;;7.00;56.60;;;;;;5056790;28;20025;-80
2020/12/08 08:12:44;;;;;;;8.02;3.22;;;7.10;56.70;;;;;;5056777;28;20036;-81
2020/12/08 08:15:11;;;;;;;9.93;3.63;;;7.20;56.70;;;;;;5056769;28;20025;-82
2020/12/08 08:17:36;;;;;;;20.20;6.68;;;7.30;56.80;;;;;;5056842;28;20028;-84
2020/12/08 08:20:04;;;;;;;16.60;6.85;;;7.30;56.70;;;;;;5055998;28;20047;-82
2020/12/08 08:22:29;;;;;;;13.45;6.30;;;7.40;56.80;;;;;;5056081;28;20082;-82
2020/12/08 08:24:55;;;;;;;10.70;5.18;;;7.50;56.70;;;;;;5057242;28;20029;-84
2020/12/08 08:27:21;;;;;;;18.20;6.30;;;7.60;56.80;;;;;;5056140;28;20120;-83
2020/12/08 08:29:47;;;;;;;18.50;7.78;;;7.70;56.90;;;;;;5057383;28;20052;-83
2020/12/08 08:32:14;;;;;;;28.25;12.23;;;7.80;56.80;;;;;;5055968;28;20466;-79
2020/12/08 08:34:40;;;;;;;177.32;63.78;;;7.90;56.80;;;;;;5055284;28;20583;-85
2020/12/08 08:37:06;;;;;;;107.35;40.15;;;7.90;56.60;;;;;;5057118;28;20045;-84
2020/12/08 08:39:31;;;;;;;38.65;14.50;;;8.00;56.60;;;;;;5056173;28;20047;-83
2020/12/08 08:41:57;;;;;;;36.72;14.95;;;8.10;56.30;;;;;;5056292;28;20489;-84
2020/12/08 08:44:23;;;;;;;37.92;16.05;;;8.20;56.20;;;;;;5055916;28;20113;-86
2020/12/08 08:46:49;;;;;;;43.15;14.05;;;8.20;56.00;;;;;;5057112;28;20025;-84
2020/12/08 08:49:15;;;;;;;25.70;10.48;;;8.30;55.80;;;;;;5056825;28;20532;-83
2020/12/08 08:51:45;;;;;;;24.63;9.60;;;8.30;55.90;;;;;;5055896;28;20028;-85
2020/12/08 08:54:12;;;;;;;19.95;7.47;;;8.40;55.70;;;;;;5055898;28;20025;-83
2020/12/08 08:56:39;;;;;;;16.35;6.70;;;8.50;55.70;;;;;;5055545;28;20045;-87
2020/12/08 08:59:05;;;;;;;26.45;6.40;;;8.50;55.60;;;;;;5055660;28;20108;-87
2020/12/08 09:01:33;;;;;;;19.42;6.60;;;8.50;55.40;;;;;;5055714;28;20036;-84
2020/12/08 09:03:58;;;;;;;14.50;6.50;;;8.60;55.30;;;;;;5056997;28;20109;-83
2020/12/08 09:06:24;;;;;;;18.90;7.82;;;8.70;55.50;;;;;;5055628;28;20089;-79
2020/12/08 09:08:50;;;;;;;20.38;7.75;;;8.70;55.30;;;;;;5055627;28;20025;-84
2020/12/08 09:11:16;;;;;;;19.13;8.35;;;8.80;55.10;;;;;;5054720;28;20423;-82
2020/12/08 09:13:43;;;;;;;20.73;8.98;;;8.80;55.00;;;;;;5056858;28;20058;-82
2020/12/08 09:16:09;;;;;;;35.42;8.32;;;8.90;55.20;;;;;;5056658;28;20470;-83
2020/12/08 09:18:35;;;;;;;15.50;6.57;;;9.00;55.50;;;;;;5055105;28;20390;-84
2020/12/08 09:21:01;;;;;;;14.93;7.07;;;9.00;55.50;;;;;;5055011;28;20025;-86
2020/12/08 09:23:27;;;;;;;23.48;10.05;;;9.10;55.60;;;;;;5054949;28;20098;-85
2020/12/08 09:25:54;;;;;;;33.17;14.65;;;9.20;55.70;;;;;;5055839;28;20386;-88
2020/12/08 09:28:23;;;;;;;40.88;14.93;;;9.30;55.70;;;;;;5054798;28;20098;-83
2020/12/08 09:30:48;;;;;;;29.05;12.00;;;9.30;55.60;;;;;;5056135;28;20522;-83
2020/12/08 09:33:16;;;;;;;14.93;6.85;;;9.40;55.60;;;;;;5055315;28;20483;-86
2020/12/08 09:35:42;;;;;;;18.80;5.82;;;9.50;55.40;;;;;;5056074;28;20359;-85
2020/12/08 09:38:08;;;;;;;16.15;6.22;;;9.60;55.10;;;;;;5056388;28;20147;-81
2020/12/08 09:40:35;;;;;;;18.55;7.43;;;9.70;54.80;;;;;;5056134;28;20025;-86
2020/12/08 09:43:01;;;;;;;32.88;10.20;;;9.70;54.20;;;;;;5057275;28;20025;-82
2020/12/08 09:45:27;;;;;;;22.58;10.57;;;9.80;54.20;;;;;;5053838;28;20025;-82
2020/12/08 09:47:53;;;;;;;26.90;10.32;;;9.90;54.10;;;;;;5053400;28;20021;-80
2020/12/08 09:50:19;;;;;;;20.27;9.38;;;10.00;54.00;;;;;;5055270;28;20078;-86
2020/12/08 09:52:44;;;;;;;22.67;8.63;;;10.10;53.90;;;;;;5055702;28;20021;-83
2020/12/08 09:55:10;;;;;;;24.52;8.88;;;10.20;53.70;;;;;;5054347;28;20025;-84
2020/12/08 09:57:36;;;;;;;18.33;7.70;;;10.30;53.50;;;;;;5055131;28;20028;-86
2020/12/08 10:00:06;;;;;;;22.80;9.35;;;10.30;53.30;;;;;;5037510;28;20029;-88
2020/12/08 10:02:32;;;;;;;20.33;9.70;;;10.40;53.10;;;;;;5035584;28;20104;-84
2020/12/08 10:04:58;;;;;;;37.03;8.98;;;10.50;53.70;;;;;;5039600;28;20514;-86
2020/12/08 10:07:24;;;;;;;22.00;8.90;;;10.60;53.00;;;;;;5045094;28;20029;-83
2020/12/08 10:09:50;;;;;;;32.83;9.10;;;10.70;53.00;;;;;;5054113;28;20029;-86
2020/12/08 10:12:17;;;;;;;19.48;8.60;;;10.90;52.80;;;;;;5038040;28;20025;-84
2020/12/08 10:14:43;;;;;;;23.67;7.63;;;11.00;52.30;;;;;;5045072;28;20047;-87
2020/12/08 10:17:14;;;;;;;21.90;8.48;;;11.10;51.40;;;;;;5055736;28;20021;-88
2020/12/08 10:19:44;;;;;;;21.35;8.27;;;11.20;51.00;;;;;;5053930;28;20035;-85
2020/12/08 10:22:12;;;;;;;19.30;7.32;;;11.30;51.30;;;;;;5055176;28;20084;-85
2020/12/08 10:24:38;;;;;;;22.10;7.32;;;11.30;51.30;;;;;;5035179;28;20053;-85
2020/12/08 10:27:05;;;;;;;20.52;7.88;;;11.40;51.40;;;;;;5034147;28;20030;-80
2020/12/08 10:29:32;;;;;;;27.55;8.52;;;11.50;51.40;;;;;;5040548;28;20033;-82
2020/12/08 10:31:58;;;;;;;16.75;7.20;;;11.70;51.30;;;;;;5054058;28;20023;-86
2020/12/08 10:34:24;;;;;;;18.33;7.00;;;11.80;51.20;;;;;;5063291;28;20386;-81
2020/12/08 10:36:50;;;;;;;14.65;6.70;;;11.90;51.00;;;;;;5037199;28;20033;-88
2020/12/08 10:39:16;;;;;;;25.67;6.85;;;12.00;50.90;;;;;;5054539;28;20031;-86
2020/12/08 10:41:42;;;;;;;20.23;5.88;;;12.10;50.60;;;;;;5055231;28;20025;-86
2020/12/08 10:44:08;;;;;;;17.95;7.07;;;12.20;50.50;;;;;;5074233;28;20029;-86
2020/12/08 10:46:36;;;;;;;13.82;6.43;;;12.30;50.20;;;;;;5058935;28;20488;-86
2020/12/08 10:49:03;;;;;;;17.50;6.25;;;12.30;49.90;;;;;;5058756;28;20116;-83
2020/12/08 10:51:28;;;;;;;15.32;5.05;;;12.40;49.60;;;;;;5054790;28;20497;-86
2020/12/08 10:53:54;;;;;;;10.45;4.00;;;12.40;48.80;;;;;;5053607;28;20036;-84
2020/12/08 10:56:21;;;;;;;17.83;5.50;;;12.50;48.20;;;;;;5053649;28;20040;-81
2020/12/08 10:58:49;;;;;;;17.52;4.38;;;12.40;47.10;;;;;;5053447;28;20075;-81
2020/12/08 11:01:18;;;;;;;9.20;3.63;;;12.40;46.90;;;;;;5053504;28;20103;-85
2020/12/08 11:03:44;;;;;;;8.63;4.15;;;12.30;46.70;;;;;;5053595;28;20017;-82
2020/12/08 11:06:10;;;;;;;10.40;3.50;;;12.30;47.00;;;;;;5057775;28;20064;-84
2020/12/08 11:08:36;;;;;;;8.93;3.85;;;12.30;46.60;;;;;;5054368;28;20064;-83
2020/12/08 11:11:02;;;;;;;15.25;3.85;;;12.20;46.70;;;;;;5054892;28;20057;-85
2020/12/08 11:13:27;;;;;;;13.02;3.92;;;12.20;47.00;;;;;;5054456;28;20054;-85
2020/12/08 11:15:53;;;;;;;9.20;4.00;;;12.20;47.00;;;;;;5053632;28;20025;-85
2020/12/08 11:18:19;;;;;;;14.13;4.90;;;12.30;47.20;;;;;;5053382;28;20021;-85
2020/12/08 11:20:45;;;;;;;11.80;7.05;;;12.30;47.10;;;;;;5037855;28;20026;-83
2020/12/08 11:23:10;;;;;;;15.23;6.18;;;12.30;47.10;;;;;;5038886;28;20068;-81
2020/12/08 11:25:36;;;;;;;20.83;5.72;;;12.30;46.80;;;;;;5056002;28;20031;-86
2020/12/08 11:28:03;;;;;;;15.55;7.05;;;12.30;46.70;;;;;;5056099;28;20078;-85
2020/12/08 11:30:29;;;;;;;17.95;6.70;;;12.30;46.70;;;;;;5054711;28;20029;-81
2020/12/08 11:32:55;;;;;;;13.50;5.70;;;12.40;46.60;;;;;;5056705;28;20044;-81
2020/12/08 11:35:21;;;;;;;19.95;7.75;;;12.30;46.30;;;;;;5054301;28;20025;-85
2020/12/08 11:37:47;;;;;;;20.73;7.60;;;12.30;46.30;;;;;;5057555;28;20146;-80
2020/12/08 11:40:12;;;;;;;16.10;6.55;;;12.40;46.50;;;;;;5059435;28;20037;-80
2020/12/08 11:42:38;;;;;;;13.18;5.10;;;12.30;46.00;;;;;;5059652;28;20577;-82
2020/12/08 11:45:04;;;;;;;17.77;5.03;;;12.30;46.30;;;;;;5054057;28;20035;-81
2020/12/08 11:47:30;;;;;;;16.15;4.57;;;12.30;45.80;;;;;;5053419;28;20371;-80
2020/12/08 11:49:55;;;;;;;14.02;3.85;;;12.30;45.40;;;;;;5055276;28;20111;-79
2020/12/08 11:52:21;;;;;;;10.55;3.60;;;12.30;45.80;;;;;;5057199;28;20021;-83
2020/12/08 11:54:47;;;;;;;8.07;3.13;;;12.30;45.50;;;;;;5056782;28;20085;-83
2020/12/08 11:57:13;;;;;;;10.05;2.40;;;12.30;44.50;;;;;;5051944;28;20031;-81
2020/12/08 11:59:38;;;;;;;3.92;1.98;;;12.30;43.30;;;;;;5041082;28;20056;-81
2020/12/08 12:02:04;;;;;;;2.70;1.58;;;12.20;43.20;;;;;;5055701;28;20056;-82
2020/12/08 12:04:30;;;;;;;5.43;2.17;;;12.20;43.20;;;;;;5056762;28;20052;-84
2020/12/08 12:06:55;;;;;;;6.03;2.33;;;12.20;43.30;;;;;;5057421;28;20063;-82
2020/12/08 12:09:21;;;;;;;5.57;2.20;;;12.30;43.20;;;;;;5065178;28;20405;-84
2020/12/08 12:11:47;;;;;;;5.03;1.92;;;12.30;43.10;;;;;;5058162;28;20029;-83
2020/12/08 12:14:13;;;;;;;4.43;1.98;;;12.30;42.60;;;;;;5060021;28;20032;-79
2020/12/08 12:16:39;;;;;;;6.13;1.92;;;12.30;42.10;;;;;;5037470;28;20405;-81
2020/12/08 12:19:05;;;;;;;3.05;1.70;;;12.30;41.70;;;;;;5035341;28;20546;-83
2020/12/08 12:21:30;;;;;;;3.05;1.40;;;12.30;42.00;;;;;;5036270;28;20061;-81
2020/12/08 12:23:58;;;;;;;11.23;1.83;;;12.30;41.90;;;;;;5052571;28;20526;-80
2020/12/08 12:26:24;;;;;;;4.30;1.75;;;12.40;41.70;;;;;;5052829;28;20030;-82
2020/12/08 12:28:52;;;;;;;4.20;1.63;;;12.40;41.30;;;;;;5036904;28;20121;-81
2020/12/08 12:31:18;;;;;;;7.68;3.15;;;12.40;41.60;;;;;;5041526;28;20013;-82
2020/12/08 12:33:44;;;;;;;7.38;2.72;;;12.40;41.10;;;;;;5056480;28;20505;-80
2020/12/08 12:36:09;;;;;;;10.50;3.60;;;12.40;41.10;;;;;;5054848;28;20029;-80
2020/12/08 12:38:35;;;;;;;9.32;3.45;;;12.40;41.40;;;;;;5057039;28;20029;-80
2020/12/08 12:41:01;;;;;;;10.07;3.42;;;12.40;41.50;;;;;;5056443;28;20047;-81
2020/12/08 12:43:26;;;;;;;7.90;3.53;;;12.40;42.40;;;;;;5056263;28;20033;-81
2020/12/08 12:45:52;;;;;;;13.70;3.75;;;12.50;42.40;;;;;;5056937;28;20025;-81
2020/12/08 12:48:18;;;;;;;5.13;2.95;;;12.50;41.90;;;;;;5055514;28;20032;-81